Terminal Aerodrome Forecast
Issued by NWS

Home | Current Version | Previous Version | Text Only | Print | Product List | Glossary On
Versions: 1 2 3 4 5 6 7 8 9 10 11 12
000
FTUS42 TJSJ 031751
TAFISX
TAF
TISX 031751Z 0318/0418 13012KT P6SM VCSH SCT045
     FM032330 08007KT P6SM VCSH SCT025 SCT035
     FM041300 11013KT P6SM SCT025=

USA.gov is the U.S. government's official web portal to all federal, state and local government web resources and services.